sensor_id;sensor_type;location;lat;lon;timestamp;pressure;altitude;pressure_sealevel;temperature;humidity
1480;BME280;732;51.698;4.886;2023-05-23T00:00:19;102119.03;;;10.58;77.30
1480;BME280;732;51.698;4.886;2023-05-23T00:02:48;102106.84;;;10.46;76.97
1480;BME280;732;51.698;4.886;2023-05-23T00:05:16;102116.16;;;10.69;76.57
1480;BME280;732;51.698;4.886;2023-05-23T00:07:45;102100.59;;;10.73;76.11
1480;BME280;732;51.698;4.886;2023-05-23T00:10:13;102110.25;;;10.66;76.55
1480;BME280;732;51.698;4.886;2023-05-23T00:12:43;102091.22;;;10.31;77.51
1480;BME280;732;51.698;4.886;2023-05-23T00:15:14;102122.31;;;10.52;77.18
1480;BME280;732;51.698;4.886;2023-05-23T00:17:42;102125.34;;;10.39;76.96
1480;BME280;732;51.698;4.886;2023-05-23T00:20:11;102082.09;;;9.68;78.14
1480;BME280;732;51.698;4.886;2023-05-23T00:22:39;102134.34;;;9.92;78.45
1480;BME280;732;51.698;4.886;2023-05-23T00:25:09;102127.56;;;9.88;78.69
1480;BME280;732;51.698;4.886;2023-05-23T00:27:38;102124.19;;;9.86;78.61
1480;BME280;732;51.698;4.886;2023-05-23T00:30:08;102132.63;;;9.91;78.33
1480;BME280;732;51.698;4.886;2023-05-23T00:32:37;102127.97;;;9.93;78.32
1480;BME280;732;51.698;4.886;2023-05-23T00:35:07;102120.03;;;9.64;79.13
1480;BME280;732;51.698;4.886;2023-05-23T00:37:35;102137.38;;;9.59;79.55
1480;BME280;732;51.698;4.886;2023-05-23T00:40:05;102152.91;;;9.66;79.93
1480;BME280;732;51.698;4.886;2023-05-23T00:42:34;102155.53;;;9.75;80.00
1480;BME280;732;51.698;4.886;2023-05-23T00:45:03;102139.16;;;9.79;79.31
1480;BME280;732;51.698;4.886;2023-05-23T00:47:33;102157.94;;;9.79;79.94
1480;BME280;732;51.698;4.886;2023-05-23T00:50:08;102162.31;;;9.80;79.72
1480;BME280;732;51.698;4.886;2023-05-23T00:52:38;102164.97;;;9.80;79.83
1480;BME280;732;51.698;4.886;2023-05-23T00:55:07;102171.22;;;9.61;80.33
1480;BME280;732;51.698;4.886;2023-05-23T00:57:37;102144.88;;;9.46;80.29
1480;BME280;732;51.698;4.886;2023-05-23T01:00:07;102166.97;;;9.68;80.15
1480;BME280;732;51.698;4.886;2023-05-23T01:02:42;102159.75;;;9.78;79.89
1480;BME280;732;51.698;4.886;2023-05-23T01:05:13;102159.97;;;10.04;78.78
1480;BME280;732;51.698;4.886;2023-05-23T01:07:44;102158.28;;;10.03;78.73
1480;BME280;732;51.698;4.886;2023-05-23T01:10:13;102154.16;;;10.09;78.59
1480;BME280;732;51.698;4.886;2023-05-23T01:12:53;102155.50;;;9.85;78.99
1480;BME280;732;51.698;4.886;2023-05-23T01:15:31;102161.00;;;9.94;79.05
1480;BME280;732;51.698;4.886;2023-05-23T01:18:07;102157.31;;;9.95;79.06
1480;BME280;732;51.698;4.886;2023-05-23T01:20:42;102161.41;;;9.99;78.97
1480;BME280;732;51.698;4.886;2023-05-23T01:23:45;102161.22;;;10.10;78.53
1480;BME280;732;51.698;4.886;2023-05-23T01:26:31;102155.47;;;9.95;79.00
1480;BME280;732;51.698;4.886;2023-05-23T01:29:07;102132.63;;;9.91;78.87
1480;BME280;732;51.698;4.886;2023-05-23T01:31:42;102164.41;;;9.86;79.34
1480;BME280;732;51.698;4.886;2023-05-23T01:34:12;102149.13;;;9.96;79.48
1480;BME280;732;51.698;4.886;2023-05-23T01:36:43;102165.03;;;10.07;78.69
1480;BME280;732;51.698;4.886;2023-05-23T01:39:11;102161.91;;;10.12;78.79
1480;BME280;732;51.698;4.886;2023-05-23T01:41:39;102141.06;;;10.06;78.40
1480;BME280;732;51.698;4.886;2023-05-23T01:44:09;102168.16;;;10.40;77.92
1480;BME280;732;51.698;4.886;2023-05-23T01:46:38;102156.50;;;10.22;78.13
1480;BME280;732;51.698;4.886;2023-05-23T01:49:10;102154.50;;;10.24;78.36
1480;BME280;732;51.698;4.886;2023-05-23T01:51:40;102148.47;;;10.22;77.97
1480;BME280;732;51.698;4.886;2023-05-23T01:54:09;102144.25;;;10.19;77.87
1480;BME280;732;51.698;4.886;2023-05-23T01:56:37;102165.56;;;10.21;78.21
1480;BME280;732;51.698;4.886;2023-05-23T01:59:06;102171.69;;;10.03;78.88
1480;BME280;732;51.698;4.886;2023-05-23T02:01:36;102152.81;;;9.85;79.06
1480;BME280;732;51.698;4.886;2023-05-23T02:04:05;102182.41;;;10.03;78.92
1480;BME280;732;51.698;4.886;2023-05-23T02:06:34;102189.78;;;10.29;78.31
1480;BME280;732;51.698;4.886;2023-05-23T02:09:02;102181.94;;;10.08;78.70
1480;BME280;732;51.698;4.886;2023-05-23T02:11:30;102140.41;;;9.84;78.70
1480;BME280;732;51.698;4.886;2023-05-23T02:13:59;102188.75;;;10.02;78.33
1480;BME280;732;51.698;4.886;2023-05-23T02:16:28;102198.31;;;10.15;77.83
1480;BME280;732;51.698;4.886;2023-05-23T02:18:58;102188.78;;;10.30;76.88
1480;BME280;732;51.698;4.886;2023-05-23T02:21:28;102181.69;;;10.39;76.75
1480;BME280;732;51.698;4.886;2023-05-23T02:24:02;102184.72;;;10.54;76.11
1480;BME280;732;51.698;4.886;2023-05-23T02:26:30;102184.13;;;10.60;75.74
1480;BME280;732;51.698;4.886;2023-05-23T02:28:59;102178.81;;;10.50;76.22
1480;BME280;732;51.698;4.886;2023-05-23T02:31:27;102167.28;;;10.40;76.18
1480;BME280;732;51.698;4.886;2023-05-23T02:33:55;102192.19;;;10.60;75.95
1480;BME280;732;51.698;4.886;2023-05-23T02:36:25;102171.19;;;10.55;75.46
1480;BME280;732;51.698;4.886;2023-05-23T02:38:54;102158.28;;;10.31;75.88
1480;BME280;732;51.698;4.886;2023-05-23T02:41:24;102105.56;;;10.22;75.40
1480;BME280;732;51.698;4.886;2023-05-23T02:43:54;102176.75;;;10.72;75.39
1480;BME280;732;51.698;4.886;2023-05-23T02:46:22;102176.97;;;10.79;74.77
1480;BME280;732;51.698;4.886;2023-05-23T02:48:51;102181.59;;;10.86;74.99
1480;BME280;732;51.698;4.886;2023-05-23T02:51:19;102166.03;;;10.62;75.53
1480;BME280;732;51.698;4.886;2023-05-23T02:53:49;102184.53;;;10.65;76.03
1480;BME280;732;51.698;4.886;2023-05-23T02:56:18;102179.69;;;10.97;74.94
1480;BME280;732;51.698;4.886;2023-05-23T02:58:48;102183.59;;;11.02;74.57
1480;BME280;732;51.698;4.886;2023-05-23T03:01:16;102181.53;;;10.78;75.24
1480;BME280;732;51.698;4.886;2023-05-23T03:03:46;102189.63;;;10.68;75.59
1480;BME280;732;51.698;4.886;2023-05-23T03:06:14;102168.03;;;10.32;76.16
1480;BME280;732;51.698;4.886;2023-05-23T03:08:43;102188.16;;;10.46;76.18
1480;BME280;732;51.698;4.886;2023-05-23T03:11:13;102184.25;;;10.40;76.15
1480;BME280;732;51.698;4.886;2023-05-23T03:13:43;102183.56;;;10.29;76.33
1480;BME280;732;51.698;4.886;2023-05-23T03:16:11;102192.19;;;10.32;76.17
1480;BME280;732;51.698;4.886;2023-05-23T03:18:40;102189.06;;;10.37;75.95
1480;BME280;732;51.698;4.886;2023-05-23T03:21:08;102179.88;;;10.39;75.86
1480;BME280;732;51.698;4.886;2023-05-23T03:23:36;102192.88;;;10.34;75.66
1480;BME280;732;51.698;4.886;2023-05-23T03:26:05;102201.78;;;10.35;75.93
1480;BME280;732;51.698;4.886;2023-05-23T03:28:35;102149.25;;;10.04;75.70
1480;BME280;732;51.698;4.886;2023-05-23T03:31:04;102201.38;;;10.30;75.57
1480;BME280;732;51.698;4.886;2023-05-23T03:33:32;102170.50;;;10.16;75.47
1480;BME280;732;51.698;4.886;2023-05-23T03:36:03;102163.78;;;10.02;75.70
1480;BME280;732;51.698;4.886;2023-05-23T03:38:31;102172.47;;;9.76;75.82
1480;BME280;732;51.698;4.886;2023-05-23T03:41:00;102214.19;;;9.98;75.98
1480;BME280;732;51.698;4.886;2023-05-23T03:43:28;102217.28;;;9.94;75.76
1480;BME280;732;51.698;4.886;2023-05-23T03:45:58;102205.59;;;9.85;75.80
1480;BME280;732;51.698;4.886;2023-05-23T03:48:27;102219.44;;;9.70;75.98
1480;BME280;732;51.698;4.886;2023-05-23T03:50:56;102217.31;;;9.64;76.37
1480;BME280;732;51.698;4.886;2023-05-23T03:53:25;102224.81;;;9.61;76.30
1480;BME280;732;51.698;4.886;2023-05-23T03:55:53;102196.63;;;9.47;76.53
1480;BME280;732;51.698;4.886;2023-05-23T03:58:22;102222.41;;;9.67;76.06
1480;BME280;732;51.698;4.886;2023-05-23T04:00:55;102167.28;;;9.45;75.42
1480;BME280;732;51.698;4.886;2023-05-23T04:03:27;102221.13;;;9.81;75.68
1480;BME280;732;51.698;4.886;2023-05-23T04:05:59;102233.66;;;9.90;75.01
1480;BME280;732;51.698;4.886;2023-05-23T04:08:27;102244.38;;;9.90;75.00
1480;BME280;732;51.698;4.886;2023-05-23T04:11:00;102242.56;;;9.91;74.47
1480;BME280;732;51.698;4.886;2023-05-23T04:13:32;102224.38;;;9.85;74.66
1480;BME280;732;51.698;4.886;2023-05-23T04:16:02;102246.34;;;9.98;74.51
1480;BME280;732;51.698;4.886;2023-05-23T04:18:33;102244.09;;;9.94;74.39
1480;BME280;732;51.698;4.886;2023-05-23T04:21:02;102239.97;;;9.99;73.90
1480;BME280;732;51.698;4.886;2023-05-23T04:23:31;102248.59;;;9.93;74.67
1480;BME280;732;51.698;4.886;2023-05-23T04:26:00;102228.34;;;9.81;73.98
1480;BME280;732;51.698;4.886;2023-05-23T04:28:33;102229.44;;;9.78;74.23
1480;BME280;732;51.698;4.886;2023-05-23T04:31:01;102215.50;;;9.45;74.24
1480;BME280;732;51.698;4.886;2023-05-23T04:33:34;102254.28;;;9.80;74.67
1480;BME280;732;51.698;4.886;2023-05-23T04:36:04;102260.63;;;9.69;74.42
1480;BME280;732;51.698;4.886;2023-05-23T04:38:37;102254.16;;;9.62;74.52
1480;BME280;732;51.698;4.886;2023-05-23T04:41:07;102271.78;;;9.74;74.40
1480;BME280;732;51.698;4.886;2023-05-23T04:43:46;102249.19;;;9.38;74.41
1480;BME280;732;51.698;4.886;2023-05-23T04:46:27;102278.41;;;9.51;74.73
1480;BME280;732;51.698;4.886;2023-05-23T04:49:19;102272.63;;;9.65;74.09
1480;BME280;732;51.698;4.886;2023-05-23T04:51:48;102283.06;;;9.58;74.24
1480;BME280;732;51.698;4.886;2023-05-23T04:54:27;102279.41;;;9.50;74.26
1480;BME280;732;51.698;4.886;2023-05-23T04:56:58;102292.25;;;9.56;73.29
1480;BME280;732;51.698;4.886;2023-05-23T04:59:28;102265.56;;;9.54;72.62
1480;BME280;732;51.698;4.886;2023-05-23T05:01:56;102292.94;;;9.97;72.21
1480;BME280;732;51.698;4.886;2023-05-23T05:04:26;102286.03;;;9.85;71.53
1480;BME280;732;51.698;4.886;2023-05-23T05:06:55;102301.69;;;9.70;71.83
1480;BME280;732;51.698;4.886;2023-05-23T05:09:23;102306.59;;;9.94;71.88
1480;BME280;732;51.698;4.886;2023-05-23T05:11:52;102289.28;;;9.69;71.91
1480;BME280;732;51.698;4.886;2023-05-23T05:14:22;102308.03;;;9.79;72.03
1480;BME280;732;51.698;4.886;2023-05-23T05:16:50;102275.28;;;9.55;71.60
1480;BME280;732;51.698;4.886;2023-05-23T05:19:21;102297.47;;;9.67;71.18
1480;BME280;732;51.698;4.886;2023-05-23T05:21:52;102318.75;;;9.69;71.57
1480;BME280;732;51.698;4.886;2023-05-23T05:24:20;102323.28;;;9.68;71.36
1480;BME280;732;51.698;4.886;2023-05-23T05:26:49;102316.47;;;9.64;70.69
1480;BME280;732;51.698;4.886;2023-05-23T05:29:17;102283.41;;;9.15;69.98
1480;BME280;732;51.698;4.886;2023-05-23T05:31:46;102290.56;;;9.04;69.86
1480;BME280;732;51.698;4.886;2023-05-23T05:34:14;102324.53;;;9.45;69.37
1480;BME280;732;51.698;4.886;2023-05-23T05:36:44;102332.00;;;9.61;68.90
1480;BME280;732;51.698;4.886;2023-05-23T05:39:17;102305.50;;;9.07;68.30
1480;BME280;732;51.698;4.886;2023-05-23T05:41:45;102334.59;;;9.31;68.70
1480;BME280;732;51.698;4.886;2023-05-23T05:44:14;102319.41;;;9.41;67.43
1480;BME280;732;51.698;4.886;2023-05-23T05:46:44;102332.56;;;9.64;67.18
1480;BME280;732;51.698;4.886;2023-05-23T05:49:12;102345.81;;;9.56;66.40
1480;BME280;732;51.698;4.886;2023-05-23T05:51:43;102349.22;;;9.68;66.47
1480;BME280;732;51.698;4.886;2023-05-23T05:54:11;102354.16;;;9.72;65.54
1480;BME280;732;51.698;4.886;2023-05-23T05:56:42;102360.06;;;9.66;65.34
1480;BME280;732;51.698;4.886;2023-05-23T05:59:10;102367.16;;;9.77;65.53
1480;BME280;732;51.698;4.886;2023-05-23T06:01:39;102351.06;;;9.67;65.29
1480;BME280;732;51.698;4.886;2023-05-23T06:04:08;102331.06;;;9.31;65.64
1480;BME280;732;51.698;4.886;2023-05-23T06:06:36;102328.06;;;9.55;64.78
1480;BME280;732;51.698;4.886;2023-05-23T06:09:05;102365.31;;;9.78;64.75
1480;BME280;732;51.698;4.886;2023-05-23T06:11:34;102369.09;;;9.65;64.13
1480;BME280;732;51.698;4.886;2023-05-23T06:14:07;102364.88;;;9.63;64.00
1480;BME280;732;51.698;4.886;2023-05-23T06:16:39;102322.09;;;9.41;63.29
1480;BME280;732;51.698;4.886;2023-05-23T06:19:08;102381.41;;;9.97;64.31
1480;BME280;732;51.698;4.886;2023-05-23T06:21:38;102376.88;;;9.98;63.93
1480;BME280;732;51.698;4.886;2023-05-23T06:24:09;102372.22;;;10.19;64.63
1480;BME280;732;51.698;4.886;2023-05-23T06:26:37;102379.09;;;10.42;62.95
1480;BME280;732;51.698;4.886;2023-05-23T06:29:06;102314.00;;;10.49;62.03
1480;BME280;732;51.698;4.886;2023-05-23T06:31:35;102377.75;;;10.85;62.14
1480;BME280;732;51.698;4.886;2023-05-23T06:34:04;102362.13;;;10.61;62.05
1480;BME280;732;51.698;4.886;2023-05-23T06:36:33;102381.34;;;10.76;62.78
1480;BME280;732;51.698;4.886;2023-05-23T06:39:01;102373.84;;;10.60;62.05
1480;BME280;732;51.698;4.886;2023-05-23T06:41:29;102385.03;;;10.35;63.22
1480;BME280;732;51.698;4.886;2023-05-23T06:43:57;102387.19;;;10.12;63.86
1480;BME280;732;51.698;4.886;2023-05-23T06:46:30;102388.72;;;9.95;64.11
1480;BME280;732;51.698;4.886;2023-05-23T06:49:00;102397.63;;;9.96;64.31
1480;BME280;732;51.698;4.886;2023-05-23T06:51:42;102358.09;;;9.88;63.94
1480;BME280;732;51.698;4.886;2023-05-23T06:54:11;102401.44;;;10.42;63.15
1480;BME280;732;51.698;4.886;2023-05-23T06:56:39;102400.59;;;10.32;62.79
1480;BME280;732;51.698;4.886;2023-05-23T06:59:08;102397.91;;;10.12;62.39
1480;BME280;732;51.698;4.886;2023-05-23T07:01:39;102353.59;;;9.69;62.27
1480;BME280;732;51.698;4.886;2023-05-23T07:04:08;102383.78;;;9.71;63.26
1480;BME280;732;51.698;4.886;2023-05-23T07:06:38;102385.47;;;9.82;62.59
1480;BME280;732;51.698;4.886;2023-05-23T07:09:07;102405.69;;;9.96;63.07
1480;BME280;732;51.698;4.886;2023-05-23T07:11:38;102420.78;;;10.16;62.99
1480;BME280;732;51.698;4.886;2023-05-23T07:14:08;102422.34;;;9.89;63.75
1480;BME280;732;51.698;4.886;2023-05-23T07:16:41;102388.81;;;9.54;64.76
1480;BME280;732;51.698;4.886;2023-05-23T07:19:11;102427.56;;;10.01;64.25
1480;BME280;732;51.698;4.886;2023-05-23T07:21:50;102398.16;;;9.70;65.24
1480;BME280;732;51.698;4.886;2023-05-23T07:24:18;102413.81;;;9.84;65.22
1480;BME280;732;51.698;4.886;2023-05-23T07:26:50;102389.50;;;9.47;64.95
1480;BME280;732;51.698;4.886;2023-05-23T07:29:18;102428.53;;;9.90;65.71
1480;BME280;732;51.698;4.886;2023-05-23T07:31:51;102417.66;;;9.91;65.32
1480;BME280;732;51.698;4.886;2023-05-23T07:34:21;102425.00;;;10.09;65.22
1480;BME280;732;51.698;4.886;2023-05-23T07:36:53;102427.97;;;10.06;66.11
1480;BME280;732;51.698;4.886;2023-05-23T07:39:24;102405.53;;;10.07;65.42
1480;BME280;732;51.698;4.886;2023-05-23T07:41:55;102425.44;;;10.24;65.15
1480;BME280;732;51.698;4.886;2023-05-23T07:44:27;102375.47;;;10.03;65.24
1480;BME280;732;51.698;4.886;2023-05-23T07:46:57;102438.56;;;10.47;64.97
1480;BME280;732;51.698;4.886;2023-05-23T07:49:26;102410.44;;;10.51;64.12
1480;BME280;732;51.698;4.886;2023-05-23T07:51:55;102435.69;;;10.87;64.21
1480;BME280;732;51.698;4.886;2023-05-23T07:54:24;102449.28;;;10.76;63.76
1480;BME280;732;51.698;4.886;2023-05-23T07:56:58;102440.38;;;10.76;63.46
1480;BME280;732;51.698;4.886;2023-05-23T07:59:26;102429.81;;;10.45;63.78
1480;BME280;732;51.698;4.886;2023-05-23T08:01:57;102443.22;;;10.25;64.55
1480;BME280;732;51.698;4.886;2023-05-23T08:04:28;102446.47;;;10.29;64.61
1480;BME280;732;51.698;4.886;2023-05-23T08:06:57;102439.41;;;10.57;63.84
1480;BME280;732;51.698;4.886;2023-05-23T08:09:48;102422.72;;;10.53;62.86
1480;BME280;732;51.698;4.886;2023-05-23T08:12:19;102470.22;;;10.53;63.93
1480;BME280;732;51.698;4.886;2023-05-23T08:14:51;102406.69;;;10.04;63.96
1480;BME280;732;51.698;4.886;2023-05-23T08:17:26;102454.47;;;10.87;63.65
1480;BME280;732;51.698;4.886;2023-05-23T08:19:56;102463.00;;;11.30;62.27
1480;BME280;732;51.698;4.886;2023-05-23T08:22:27;102449.16;;;11.53;60.98
1480;BME280;732;51.698;4.886;2023-05-23T08:24:55;102464.69;;;11.59;59.58
1480;BME280;732;51.698;4.886;2023-05-23T08:27:25;102459.00;;;11.34;58.61
1480;BME280;732;51.698;4.886;2023-05-23T08:29:57;102457.16;;;11.63;57.97
1480;BME280;732;51.698;4.886;2023-05-23T08:32:27;102455.09;;;11.84;56.82
1480;BME280;732;51.698;4.886;2023-05-23T08:34:56;102451.50;;;12.74;54.36
1480;BME280;732;51.698;4.886;2023-05-23T08:37:25;102450.06;;;13.41;50.59
1480;BME280;732;51.698;4.886;2023-05-23T08:39:54;102446.31;;;13.34;51.16
1480;BME280;732;51.698;4.886;2023-05-23T08:42:42;102437.88;;;13.37;49.63
1480;BME280;732;51.698;4.886;2023-05-23T08:45:13;102437.81;;;13.63;50.04
1480;BME280;732;51.698;4.886;2023-05-23T08:47:45;102435.44;;;14.36;49.92
1480;BME280;732;51.698;4.886;2023-05-23T08:50:21;102443.56;;;15.25;47.82
1480;BME280;732;51.698;4.886;2023-05-23T08:52:55;102421.25;;;15.94;44.12
1480;BME280;732;51.698;4.886;2023-05-23T08:55:26;102434.34;;;16.06;45.10
1480;BME280;732;51.698;4.886;2023-05-23T08:57:58;102464.06;;;15.91;43.53
1480;BME280;732;51.698;4.886;2023-05-23T09:00:53;102452.66;;;15.32;45.29
1480;BME280;732;51.698;4.886;2023-05-23T09:03:25;102437.88;;;15.12;45.35
1480;BME280;732;51.698;4.886;2023-05-23T09:06:14;102471.28;;;15.19;45.93
1480;BME280;732;51.698;4.886;2023-05-23T09:08:44;102473.53;;;15.15;44.98
1480;BME280;732;51.698;4.886;2023-05-23T09:11:14;102436.72;;;14.89;44.99
1480;BME280;732;51.698;4.886;2023-05-23T09:13:44;102459.38;;;14.97;45.18
1480;BME280;732;51.698;4.886;2023-05-23T09:16:15;102474.91;;;14.95;45.75
1480;BME280;732;51.698;4.886;2023-05-23T09:18:57;102425.16;;;14.39;46.46
1480;BME280;732;51.698;4.886;2023-05-23T09:21:31;102475.41;;;14.98;45.58
1480;BME280;732;51.698;4.886;2023-05-23T09:24:09;102470.66;;;15.00;43.38
1480;BME280;732;51.698;4.886;2023-05-23T09:26:38;102467.44;;;15.05;43.65
1480;BME280;732;51.698;4.886;2023-05-23T09:29:06;102468.50;;;14.96;43.64
1480;BME280;732;51.698;4.886;2023-05-23T09:31:35;102473.72;;;14.97;43.54
1480;BME280;732;51.698;4.886;2023-05-23T09:34:05;102468.88;;;15.40;45.63
1480;BME280;732;51.698;4.886;2023-05-23T09:36:40;102457.06;;;15.65;44.30
1480;BME280;732;51.698;4.886;2023-05-23T09:39:11;102458.63;;;15.99;42.62
1480;BME280;732;51.698;4.886;2023-05-23T09:41:39;102480.28;;;15.11;43.26
1480;BME280;732;51.698;4.886;2023-05-23T09:44:08;102480.97;;;14.55;44.98
1480;BME280;732;51.698;4.886;2023-05-23T09:46:37;102449.25;;;14.16;45.18
1480;BME280;732;51.698;4.886;2023-05-23T09:49:16;102455.59;;;13.90;44.92
1480;BME280;732;51.698;4.886;2023-05-23T09:51:57;102460.06;;;14.33;43.76
1480;BME280;732;51.698;4.886;2023-05-23T09:54:25;102491.59;;;15.06;44.80
1480;BME280;732;51.698;4.886;2023-05-23T09:56:55;102466.75;;;15.11;43.59
1480;BME280;732;51.698;4.886;2023-05-23T09:59:28;102489.41;;;15.58;41.87
1480;BME280;732;51.698;4.886;2023-05-23T10:02:00;102473.38;;;15.48;41.83
1480;BME280;732;51.698;4.886;2023-05-23T10:04:34;102459.38;;;15.45;41.08
1480;BME280;732;51.698;4.886;2023-05-23T10:07:09;102447.66;;;15.52;41.91
1480;BME280;732;51.698;4.886;2023-05-23T10:09:43;102482.03;;;15.83;40.09
1480;BME280;732;51.698;4.886;2023-05-23T10:12:41;102484.84;;;16.22;40.59
1480;BME280;732;51.698;4.886;2023-05-23T10:15:13;102490.00;;;16.08;40.48
1480;BME280;732;51.698;4.886;2023-05-23T10:18:00;102490.03;;;15.68;41.63
1480;BME280;732;51.698;4.886;2023-05-23T10:20:32;102476.88;;;15.26;42.56
1480;BME280;732;51.698;4.886;2023-05-23T10:23:02;102493.16;;;15.01;42.58
1480;BME280;732;51.698;4.886;2023-05-23T10:25:32;102491.13;;;15.03;42.94
1480;BME280;732;51.698;4.886;2023-05-23T10:28:03;102501.88;;;15.19;43.55
1480;BME280;732;51.698;4.886;2023-05-23T10:30:33;102502.25;;;15.08;43.52
1480;BME280;732;51.698;4.886;2023-05-23T10:33:02;102500.94;;;14.96;42.93
1480;BME280;732;51.698;4.886;2023-05-23T10:35:41;102503.13;;;14.75;43.55
1480;BME280;732;51.698;4.886;2023-05-23T10:38:27;102514.25;;;14.39;42.39
1480;BME280;732;51.698;4.886;2023-05-23T10:41:09;102502.28;;;14.42;42.71
1480;BME280;732;51.698;4.886;2023-05-23T10:43:47;102467.78;;;14.03;43.12
1480;BME280;732;51.698;4.886;2023-05-23T10:46:19;102483.38;;;14.58;43.21
1480;BME280;732;51.698;4.886;2023-05-23T10:48:54;102482.28;;;15.26;42.58
1480;BME280;732;51.698;4.886;2023-05-23T10:51:25;102496.06;;;15.87;40.83
1480;BME280;732;51.698;4.886;2023-05-23T10:54:10;102479.81;;;15.79;39.17
1480;BME280;732;51.698;4.886;2023-05-23T10:56:38;102494.75;;;15.75;40.56
1480;BME280;732;51.698;4.886;2023-05-23T10:59:07;102469.97;;;15.54;40.88
1480;BME280;732;51.698;4.886;2023-05-23T11:01:38;102491.09;;;15.99;40.82
1480;BME280;732;51.698;4.886;2023-05-23T11:04:07;102492.16;;;16.59;38.81
1480;BME280;732;51.698;4.886;2023-05-23T11:06:41;102493.06;;;16.75;39.70
1480;BME280;732;51.698;4.886;2023-05-23T11:09:13;102487.53;;;16.45;40.62
1480;BME280;732;51.698;4.886;2023-05-23T11:12:08;102457.53;;;16.08;40.89
1480;BME280;732;51.698;4.886;2023-05-23T11:15:00;102485.63;;;16.30;41.30
1480;BME280;732;51.698;4.886;2023-05-23T11:17:30;102486.06;;;16.19;40.25
1480;BME280;732;51.698;4.886;2023-05-23T11:20:03;102475.47;;;15.78;41.79
1480;BME280;732;51.698;4.886;2023-05-23T11:22:35;102455.47;;;16.33;42.28
1480;BME280;732;51.698;4.886;2023-05-23T11:25:06;102494.50;;;16.85;37.85
1480;BME280;732;51.698;4.886;2023-05-23T11:27:39;102491.81;;;17.45;37.02
1480;BME280;732;51.698;4.886;2023-05-23T11:30:11;102493.97;;;17.35;38.14
1480;BME280;732;51.698;4.886;2023-05-23T11:32:41;102472.19;;;16.60;38.04
1480;BME280;732;51.698;4.886;2023-05-23T11:35:10;102493.22;;;16.12;39.97
1480;BME280;732;51.698;4.886;2023-05-23T11:37:40;102500.00;;;16.54;40.71
1480;BME280;732;51.698;4.886;2023-05-23T11:40:26;102496.22;;;16.17;40.91
1480;BME280;732;51.698;4.886;2023-05-23T11:42:56;102496.41;;;16.15;40.16
1480;BME280;732;51.698;4.886;2023-05-23T11:45:25;102488.78;;;15.87;41.22
1480;BME280;732;51.698;4.886;2023-05-23T11:47:54;102495.63;;;15.67;41.74
1480;BME280;732;51.698;4.886;2023-05-23T11:50:22;102486.94;;;15.40;40.75
1480;BME280;732;51.698;4.886;2023-05-23T11:52:53;102471.19;;;15.52;41.72
1480;BME280;732;51.698;4.886;2023-05-23T11:55:23;102502.94;;;15.98;40.58
1480;BME280;732;51.698;4.886;2023-05-23T11:57:55;102464.59;;;15.86;41.06
1480;BME280;732;51.698;4.886;2023-05-23T12:00:24;102512.25;;;15.55;40.88
1480;BME280;732;51.698;4.886;2023-05-23T12:02:52;102504.78;;;14.85;42.95
1480;BME280;732;51.698;4.886;2023-05-23T12:05:21;102504.63;;;14.78;44.03
1480;BME280;732;51.698;4.886;2023-05-23T12:07:51;102492.78;;;15.04;42.63
1480;BME280;732;51.698;4.886;2023-05-23T12:10:27;102485.91;;;15.41;42.44
1480;BME280;732;51.698;4.886;2023-05-23T12:12:55;102496.91;;;15.48;42.43
1480;BME280;732;51.698;4.886;2023-05-23T12:15:25;102509.38;;;15.97;41.00
1480;BME280;732;51.698;4.886;2023-05-23T12:17:54;102516.81;;;16.49;40.74
1480;BME280;732;51.698;4.886;2023-05-23T12:20:24;102463.34;;;16.43;39.81
1480;BME280;732;51.698;4.886;2023-05-23T12:22:59;102514.38;;;17.31;39.48
1480;BME280;732;51.698;4.886;2023-05-23T12:25:39;102522.78;;;17.06;38.44
1480;BME280;732;51.698;4.886;2023-05-23T12:28:09;102525.34;;;16.84;39.06
1480;BME280;732;51.698;4.886;2023-05-23T12:30:40;102519.19;;;16.21;39.96
1480;BME280;732;51.698;4.886;2023-05-23T12:33:09;102525.84;;;15.87;41.12
1480;BME280;732;51.698;4.886;2023-05-23T12:35:42;102503.88;;;15.73;41.74
1480;BME280;732;51.698;4.886;2023-05-23T12:38:15;102523.31;;;15.85;40.02
1480;BME280;732;51.698;4.886;2023-05-23T12:40:44;102505.72;;;16.36;41.13
1480;BME280;732;51.698;4.886;2023-05-23T12:43:15;102502.19;;;16.35;39.95
1480;BME280;732;51.698;4.886;2023-05-23T12:45:43;102517.88;;;16.87;38.84
1480;BME280;732;51.698;4.886;2023-05-23T12:48:12;102518.81;;;16.71;39.71
1480;BME280;732;51.698;4.886;2023-05-23T12:50:40;102480.50;;;16.35;39.53
1480;BME280;732;51.698;4.886;2023-05-23T12:53:08;102518.34;;;16.67;39.55
1480;BME280;732;51.698;4.886;2023-05-23T12:55:38;102511.38;;;16.49;37.75
1480;BME280;732;51.698;4.886;2023-05-23T12:58:07;102505.53;;;16.14;37.86
1480;BME280;732;51.698;4.886;2023-05-23T13:00:35;102491.06;;;16.30;40.42
1480;BME280;732;51.698;4.886;2023-05-23T13:03:04;102503.28;;;16.26;37.23
1480;BME280;732;51.698;4.886;2023-05-23T13:05:33;102490.53;;;15.72;38.15
1480;BME280;732;51.698;4.886;2023-05-23T13:08:01;102490.34;;;15.34;39.14
1480;BME280;732;51.698;4.886;2023-05-23T13:10:30;102506.25;;;15.29;39.43
1480;BME280;732;51.698;4.886;2023-05-23T13:12:59;102512.31;;;15.79;39.04
1480;BME280;732;51.698;4.886;2023-05-23T13:15:28;102469.38;;;15.84;39.18
1480;BME280;732;51.698;4.886;2023-05-23T13:17:57;102506.44;;;16.53;39.31
1480;BME280;732;51.698;4.886;2023-05-23T13:20:25;102505.38;;;17.15;36.53
1480;BME280;732;51.698;4.886;2023-05-23T13:22:59;102513.31;;;17.17;36.13
1480;BME280;732;51.698;4.886;2023-05-23T13:25:27;102520.47;;;16.33;38.60
1480;BME280;732;51.698;4.886;2023-05-23T13:27:56;102527.91;;;16.08;40.39
1480;BME280;732;51.698;4.886;2023-05-23T13:30:27;102500.56;;;15.55;39.10
1480;BME280;732;51.698;4.886;2023-05-23T13:32:55;102526.22;;;15.11;39.58
1480;BME280;732;51.698;4.886;2023-05-23T13:35:24;102522.28;;;15.38;39.96
1480;BME280;732;51.698;4.886;2023-05-23T13:37:52;102515.47;;;15.59;40.75
1480;BME280;732;51.698;4.886;2023-05-23T13:40:22;102516.06;;;16.09;39.77
1480;BME280;732;51.698;4.886;2023-05-23T13:42:51;102494.59;;;16.08;39.34
1480;BME280;732;51.698;4.886;2023-05-23T13:45:19;102514.13;;;16.88;38.88